sensor_id;sensor_type;location;lat;lon;timestamp;P1;durP1;ratioP1;P2;durP2;ratioP2
69256;SDS011;56376;53.356;-1.748;2022-10-31T01:39:32;6.23;;;2.63;;
69256;SDS011;56376;53.356;-1.748;2022-10-31T01:41:59;6.78;;;2.72;;
69256;SDS011;56376;53.356;-1.748;2022-10-31T01:49:45;5.85;;;2.35;;
69256;SDS011;56376;53.356;-1.748;2022-10-31T01:52:33;8.25;;;2.78;;
69256;SDS011;56376;53.356;-1.748;2022-10-31T02:00:14;8.63;;;2.90;;
69256;SDS011;56376;53.356;-1.748;2022-10-31T02:02:40;5.82;;;2.90;;
69256;SDS011;56376;53.356;-1.748;2022-10-31T02:05:12;6.65;;;2.70;;
69256;SDS011;56376;53.356;-1.748;2022-10-31T02:10:19;6.55;;;2.90;;
69256;SDS011;56376;53.356;-1.748;2022-10-31T02:12:46;11.10;;;3.72;;
69256;SDS011;56376;53.356;-1.748;2022-10-31T02:15:13;7.60;;;3.45;;
69256;SDS011;56376;53.356;-1.748;2022-10-31T02:17:39;10.38;;;3.08;;
69256;SDS011;56376;53.356;-1.748;2022-10-31T02:22:54;8.15;;;2.60;;
69256;SDS011;56376;53.356;-1.748;2022-10-31T02:34:26;6.15;;;2.70;;
69256;SDS011;56376;53.356;-1.748;2022-10-31T02:39:50;12.55;;;3.70;;
69256;SDS011;56376;53.356;-1.748;2022-10-31T02:42:39;10.07;;;4.05;;
69256;SDS011;56376;53.356;-1.748;2022-10-31T02:50:08;8.80;;;2.88;;
69256;SDS011;56376;53.356;-1.748;2022-10-31T02:52:39;10.25;;;3.00;;
69256;SDS011;56376;53.356;-1.748;2022-10-31T02:57:53;9.35;;;2.70;;
69256;SDS011;56376;53.356;-1.748;2022-10-31T03:00:22;7.70;;;2.33;;
69256;SDS011;56376;53.356;-1.748;2022-10-31T03:02:53;5.32;;;2.88;;
69256;SDS011;56376;53.356;-1.748;2022-10-31T03:05:37;8.18;;;2.65;;
69256;SDS011;56376;53.356;-1.748;2022-10-31T03:11:07;8.82;;;2.78;;
69256;SDS011;56376;53.356;-1.748;2022-10-31T03:16:13;9.30;;;3.17;;
69256;SDS011;56376;53.356;-1.748;2022-10-31T03:18:52;3.70;;;2.08;;
69256;SDS011;56376;53.356;-1.748;2022-10-31T03:23:59;5.45;;;2.25;;
69256;SDS011;56376;53.356;-1.748;2022-10-31T03:26:25;5.88;;;2.60;;
69256;SDS011;56376;53.356;-1.748;2022-10-31T03:28:53;6.05;;;2.15;;
69256;SDS011;56376;53.356;-1.748;2022-10-31T03:31:23;6.80;;;3.15;;
69256;SDS011;56376;53.356;-1.748;2022-10-31T03:33:54;5.90;;;2.40;;
69256;SDS011;56376;53.356;-1.748;2022-10-31T03:36:23;5.00;;;2.10;;
69256;SDS011;56376;53.356;-1.748;2022-10-31T03:38:52;5.70;;;2.42;;
69256;SDS011;56376;53.356;-1.748;2022-10-31T03:41:20;10.02;;;2.60;;
69256;SDS011;56376;53.356;-1.748;2022-10-31T03:43:55;8.27;;;2.83;;
69256;SDS011;56376;53.356;-1.748;2022-10-31T03:46:25;11.80;;;3.35;;
69256;SDS011;56376;53.356;-1.748;2022-10-31T03:48:52;10.57;;;3.65;;
69256;SDS011;56376;53.356;-1.748;2022-10-31T03:51:30;8.30;;;2.72;;
69256;SDS011;56376;53.356;-1.748;2022-10-31T03:54:20;8.07;;;3.13;;
69256;SDS011;56376;53.356;-1.748;2022-10-31T03:56:56;8.25;;;2.80;;
69256;SDS011;56376;53.356;-1.748;2022-10-31T03:59:35;10.55;;;2.67;;
69256;SDS011;56376;53.356;-1.748;2022-10-31T04:02:10;11.65;;;3.58;;
69256;SDS011;56376;53.356;-1.748;2022-10-31T04:04:39;10.63;;;3.53;;
69256;SDS011;56376;53.356;-1.748;2022-10-31T04:07:05;8.98;;;3.00;;
69256;SDS011;56376;53.356;-1.748;2022-10-31T04:09:33;8.73;;;3.38;;
69256;SDS011;56376;53.356;-1.748;2022-10-31T04:12:02;6.03;;;2.20;;
69256;SDS011;56376;53.356;-1.748;2022-10-31T04:14:33;14.35;;;4.60;;
69256;SDS011;56376;53.356;-1.748;2022-10-31T04:17:02;9.40;;;3.35;;
69256;SDS011;56376;53.356;-1.748;2022-10-31T04:19:32;9.75;;;3.22;;
69256;SDS011;56376;53.356;-1.748;2022-10-31T04:21:58;10.80;;;3.25;;
69256;SDS011;56376;53.356;-1.748;2022-10-31T04:24:23;10.40;;;2.95;;
69256;SDS011;56376;53.356;-1.748;2022-10-31T04:26:49;11.52;;;2.70;;
69256;SDS011;56376;53.356;-1.748;2022-10-31T04:29:14;7.88;;;2.80;;
69256;SDS011;56376;53.356;-1.748;2022-10-31T04:31:40;9.25;;;3.03;;
69256;SDS011;56376;53.356;-1.748;2022-10-31T04:34:05;5.38;;;2.20;;
69256;SDS011;56376;53.356;-1.748;2022-10-31T04:36:32;4.28;;;2.00;;
69256;SDS011;56376;53.356;-1.748;2022-10-31T04:38:58;4.47;;;1.75;;
69256;SDS011;56376;53.356;-1.748;2022-10-31T04:41:23;9.40;;;2.72;;
69256;SDS011;56376;53.356;-1.748;2022-10-31T04:43:57;4.10;;;1.90;;
69256;SDS011;56376;53.356;-1.748;2022-10-31T04:46:23;5.70;;;1.92;;
69256;SDS011;56376;53.356;-1.748;2022-10-31T04:48:48;3.13;;;1.60;;
69256;SDS011;56376;53.356;-1.748;2022-10-31T04:51:14;5.55;;;1.90;;
69256;SDS011;56376;53.356;-1.748;2022-10-31T04:53:39;6.00;;;2.42;;
69256;SDS011;56376;53.356;-1.748;2022-10-31T04:56:05;4.53;;;1.83;;
69256;SDS011;56376;53.356;-1.748;2022-10-31T04:58:31;5.00;;;1.88;;
69256;SDS011;56376;53.356;-1.748;2022-10-31T05:00:57;5.35;;;2.03;;
69256;SDS011;56376;53.356;-1.748;2022-10-31T05:03:22;7.40;;;2.50;;
69256;SDS011;56376;53.356;-1.748;2022-10-31T05:05:48;4.72;;;2.25;;
69256;SDS011;56376;53.356;-1.748;2022-10-31T05:08:14;6.60;;;2.60;;
69256;SDS011;56376;53.356;-1.748;2022-10-31T05:10:40;6.47;;;2.72;;
69256;SDS011;56376;53.356;-1.748;2022-10-31T05:13:05;11.07;;;2.83;;
69256;SDS011;56376;53.356;-1.748;2022-10-31T05:15:31;3.70;;;1.92;;
69256;SDS011;56376;53.356;-1.748;2022-10-31T05:17:57;9.95;;;3.95;;
69256;SDS011;56376;53.356;-1.748;2022-10-31T05:20:23;5.93;;;2.20;;
69256;SDS011;56376;53.356;-1.748;2022-10-31T05:22:52;7.22;;;2.50;;
69256;SDS011;56376;53.356;-1.748;2022-10-31T05:25:20;10.00;;;2.20;;
69256;SDS011;56376;53.356;-1.748;2022-10-31T07:32:36;6.82;;;2.88;;
69256;SDS011;56376;53.356;-1.748;2022-10-31T07:35:06;6.72;;;2.50;;
69256;SDS011;56376;53.356;-1.748;2022-10-31T07:37:32;11.18;;;3.13;;
69256;SDS011;56376;53.356;-1.748;2022-10-31T07:39:58;9.20;;;2.72;;
69256;SDS011;56376;53.356;-1.748;2022-10-31T07:42:23;7.60;;;2.60;;
69256;SDS011;56376;53.356;-1.748;2022-10-31T07:44:49;8.77;;;2.85;;
69256;SDS011;56376;53.356;-1.748;2022-10-31T07:47:14;8.23;;;2.38;;
69256;SDS011;56376;53.356;-1.748;2022-10-31T07:49:39;7.82;;;2.90;;
69256;SDS011;56376;53.356;-1.748;2022-10-31T07:52:05;7.22;;;2.55;;
69256;SDS011;56376;53.356;-1.748;2022-10-31T07:54:30;7.72;;;2.50;;
69256;SDS011;56376;53.356;-1.748;2022-10-31T07:56:56;5.53;;;2.75;;
69256;SDS011;56376;53.356;-1.748;2022-10-31T07:59:21;7.22;;;2.47;;
69256;SDS011;56376;53.356;-1.748;2022-10-31T08:01:46;6.25;;;3.17;;
69256;SDS011;56376;53.356;-1.748;2022-10-31T08:04:12;8.80;;;2.65;;
69256;SDS011;56376;53.356;-1.748;2022-10-31T08:06:37;7.35;;;3.10;;
69256;SDS011;56376;53.356;-1.748;2022-10-31T08:09:02;9.10;;;2.83;;
69256;SDS011;56376;53.356;-1.748;2022-10-31T08:11:28;7.10;;;2.30;;
69256;SDS011;56376;53.356;-1.748;2022-10-31T08:13:53;7.55;;;2.63;;
69256;SDS011;56376;53.356;-1.748;2022-10-31T08:16:19;10.13;;;2.50;;
69256;SDS011;56376;53.356;-1.748;2022-10-31T08:18:44;16.88;;;4.10;;
69256;SDS011;56376;53.356;-1.748;2022-10-31T08:21:09;9.05;;;2.55;;
69256;SDS011;56376;53.356;-1.748;2022-10-31T08:23:35;7.20;;;2.40;;
69256;SDS011;56376;53.356;-1.748;2022-10-31T08:26:01;7.30;;;2.50;;
69256;SDS011;56376;53.356;-1.748;2022-10-31T08:28:26;9.95;;;2.83;;
69256;SDS011;56376;53.356;-1.748;2022-10-31T08:30:51;8.13;;;2.53;;
69256;SDS011;56376;53.356;-1.748;2022-10-31T08:33:17;7.95;;;2.47;;
69256;SDS011;56376;53.356;-1.748;2022-10-31T08:35:43;7.32;;;2.35;;
69256;SDS011;56376;53.356;-1.748;2022-10-31T08:38:10;9.02;;;2.30;;
69256;SDS011;56376;53.356;-1.748;2022-10-31T08:40:36;6.97;;;2.40;;
69256;SDS011;56376;53.356;-1.748;2022-10-31T08:43:03;6.32;;;2.17;;
69256;SDS011;56376;53.356;-1.748;2022-10-31T08:45:34;7.43;;;2.42;;
69256;SDS011;56376;53.356;-1.748;2022-10-31T08:48:00;7.80;;;2.22;;
69256;SDS011;56376;53.356;-1.748;2022-10-31T08:50:28;6.47;;;1.90;;
69256;SDS011;56376;53.356;-1.748;2022-10-31T08:52:59;5.85;;;2.58;;
69256;SDS011;56376;53.356;-1.748;2022-10-31T08:55:26;4.82;;;2.00;;
69256;SDS011;56376;53.356;-1.748;2022-10-31T08:58:00;6.10;;;1.73;;
69256;SDS011;56376;53.356;-1.748;2022-10-31T09:00:26;5.90;;;2.08;;
69256;SDS011;56376;53.356;-1.748;2022-10-31T09:02:58;8.25;;;2.55;;
69256;SDS011;56376;53.356;-1.748;2022-10-31T09:05:25;7.72;;;3.30;;
69256;SDS011;56376;53.356;-1.748;2022-10-31T09:07:54;8.05;;;2.40;;
69256;SDS011;56376;53.356;-1.748;2022-10-31T09:10:20;11.63;;;2.95;;
69256;SDS011;56376;53.356;-1.748;2022-10-31T09:12:46;9.82;;;2.60;;
69256;SDS011;56376;53.356;-1.748;2022-10-31T09:15:11;8.98;;;3.22;;
69256;SDS011;56376;53.356;-1.748;2022-10-31T09:17:37;7.80;;;2.30;;
69256;SDS011;56376;53.356;-1.748;2022-10-31T09:20:02;4.50;;;2.00;;
69256;SDS011;56376;53.356;-1.748;2022-10-31T09:22:28;3.75;;;1.75;;
69256;SDS011;56376;53.356;-1.748;2022-10-31T09:24:53;6.13;;;2.05;;
69256;SDS011;56376;53.356;-1.748;2022-10-31T09:27:18;4.18;;;1.75;;
69256;SDS011;56376;53.356;-1.748;2022-10-31T09:29:44;5.53;;;2.10;;
69256;SDS011;56376;53.356;-1.748;2022-10-31T09:32:09;4.38;;;1.98;;
69256;SDS011;56376;53.356;-1.748;2022-10-31T09:37:56;4.82;;;1.98;;
69256;SDS011;56376;53.356;-1.748;2022-10-31T09:40:35;8.30;;;2.20;;
69256;SDS011;56376;53.356;-1.748;2022-10-31T09:43:15;6.60;;;3.47;;
69256;SDS011;56376;53.356;-1.748;2022-10-31T09:48:45;8.02;;;3.00;;
69256;SDS011;56376;53.356;-1.748;2022-10-31T09:51:13;6.28;;;2.47;;
69256;SDS011;56376;53.356;-1.748;2022-10-31T09:53:45;5.90;;;2.67;;
69256;SDS011;56376;53.356;-1.748;2022-10-31T09:56:30;9.77;;;3.17;;
69256;SDS011;56376;53.356;-1.748;2022-10-31T09:58:58;11.02;;;2.63;;
69256;SDS011;56376;53.356;-1.748;2022-10-31T10:07:03;7.72;;;2.53;;
69256;SDS011;56376;53.356;-1.748;2022-10-31T10:09:49;10.20;;;3.88;;
69256;SDS011;56376;53.356;-1.748;2022-10-31T10:13:01;10.10;;;2.97;;
69256;SDS011;56376;53.356;-1.748;2022-10-31T10:29:49;10.95;;;2.60;;
69256;SDS011;56376;53.356;-1.748;2022-10-31T10:32:26;10.38;;;2.42;;
69256;SDS011;56376;53.356;-1.748;2022-10-31T10:34:59;8.45;;;2.85;;
69256;SDS011;56376;53.356;-1.748;2022-10-31T10:37:39;9.70;;;2.45;;
69256;SDS011;56376;53.356;-1.748;2022-10-31T10:40:13;6.68;;;2.55;;
69256;SDS011;56376;53.356;-1.748;2022-10-31T10:42:59;13.27;;;2.78;;
69256;SDS011;56376;53.356;-1.748;2022-10-31T10:45:46;6.22;;;1.85;;
69256;SDS011;56376;53.356;-1.748;2022-10-31T10:48:57;8.90;;;2.88;;
69256;SDS011;56376;53.356;-1.748;2022-10-31T11:00:44;5.43;;;2.30;;
69256;SDS011;56376;53.356;-1.748;2022-10-31T11:03:11;8.98;;;2.60;;
69256;SDS011;56376;53.356;-1.748;2022-10-31T11:06:00;9.70;;;2.72;;
69256;SDS011;56376;53.356;-1.748;2022-10-31T11:08:29;5.10;;;2.17;;
69256;SDS011;56376;53.356;-1.748;2022-10-31T11:11:00;7.40;;;2.03;;
69256;SDS011;56376;53.356;-1.748;2022-10-31T11:13:28;11.85;;;2.70;;
69256;SDS011;56376;53.356;-1.748;2022-10-31T11:18:30;7.20;;;3.03;;
69256;SDS011;56376;53.356;-1.748;2022-10-31T11:20:59;7.63;;;2.40;;
69256;SDS011;56376;53.356;-1.748;2022-10-31T11:23:26;15.63;;;3.05;;
69256;SDS011;56376;53.356;-1.748;2022-10-31T11:25:54;9.57;;;2.70;;
69256;SDS011;56376;53.356;-1.748;2022-10-31T11:28:22;9.57;;;3.13;;
69256;SDS011;56376;53.356;-1.748;2022-10-31T11:30:55;6.68;;;2.20;;
69256;SDS011;56376;53.356;-1.748;2022-10-31T11:33:29;9.65;;;2.22;;
69256;SDS011;56376;53.356;-1.748;2022-10-31T11:35:57;6.07;;;1.98;;
69256;SDS011;56376;53.356;-1.748;2022-10-31T11:38:25;7.15;;;2.03;;
69256;SDS011;56376;53.356;-1.748;2022-10-31T11:40:59;8.00;;;2.38;;
69256;SDS011;56376;53.356;-1.748;2022-10-31T11:43:31;9.68;;;2.33;;
69256;SDS011;56376;53.356;-1.748;2022-10-31T11:45:56;8.75;;;2.65;;
69256;SDS011;56376;53.356;-1.748;2022-10-31T11:48:22;11.13;;;2.67;;
69256;SDS011;56376;53.356;-1.748;2022-10-31T11:50:56;8.93;;;2.92;;
69256;SDS011;56376;53.356;-1.748;2022-10-31T11:53:29;7.67;;;2.27;;
69256;SDS011;56376;53.356;-1.748;2022-10-31T11:56:01;6.38;;;2.10;;
69256;SDS011;56376;53.356;-1.748;2022-10-31T11:58:30;7.90;;;2.58;;
69256;SDS011;56376;53.356;-1.748;2022-10-31T12:00:56;4.20;;;1.90;;
69256;SDS011;56376;53.356;-1.748;2022-10-31T12:08:57;6.78;;;2.20;;
69256;SDS011;56376;53.356;-1.748;2022-10-31T12:14:03;6.85;;;2.28;;
69256;SDS011;56376;53.356;-1.748;2022-10-31T12:16:40;4.43;;;1.50;;
69256;SDS011;56376;53.356;-1.748;2022-10-31T12:19:17;7.55;;;2.70;;
69256;SDS011;56376;53.356;-1.748;2022-10-31T12:27:22;6.20;;;2.15;;
69256;SDS011;56376;53.356;-1.748;2022-10-31T12:37:26;4.90;;;2.53;;
69256;SDS011;56376;53.356;-1.748;2022-10-31T12:50:41;6.22;;;2.03;;
69256;SDS011;56376;53.356;-1.748;2022-10-31T12:53:29;7.60;;;2.30;;
69256;SDS011;56376;53.356;-1.748;2022-10-31T12:58:31;4.80;;;1.75;;
69256;SDS011;56376;53.356;-1.748;2022-10-31T13:01:12;3.63;;;2.25;;
69256;SDS011;56376;53.356;-1.748;2022-10-31T13:03:52;5.38;;;2.03;;
69256;SDS011;56376;53.356;-1.748;2022-10-31T13:06:53;4.43;;;1.63;;
69256;SDS011;56376;53.356;-1.748;2022-10-31T13:09:36;5.13;;;2.08;;
69256;SDS011;56376;53.356;-1.748;2022-10-31T13:12:09;4.28;;;1.95;;
69256;SDS011;56376;53.356;-1.748;2022-10-31T13:14:57;4.35;;;2.00;;
69256;SDS011;56376;53.356;-1.748;2022-10-31T13:17:39;4.97;;;1.90;;
69256;SDS011;56376;53.356;-1.748;2022-10-31T13:20:14;6.38;;;2.22;;
69256;SDS011;56376;53.356;-1.748;2022-10-31T13:23:05;6.45;;;2.40;;
69256;SDS011;56376;53.356;-1.748;2022-10-31T13:25:40;11.63;;;3.45;;
69256;SDS011;56376;53.356;-1.748;2022-10-31T13:28:23;6.40;;;2.35;;
69256;SDS011;56376;53.356;-1.748;2022-10-31T13:30:49;8.90;;;2.67;;
69256;SDS011;56376;53.356;-1.748;2022-10-31T13:33:21;3.38;;;1.73;;
69256;SDS011;56376;53.356;-1.748;2022-10-31T13:38:37;6.13;;;1.92;;
69256;SDS011;56376;53.356;-1.748;2022-10-31T13:48:56;7.25;;;2.40;;
69256;SDS011;56376;53.356;-1.748;2022-10-31T13:51:25;8.18;;;2.15;;
69256;SDS011;56376;53.356;-1.748;2022-10-31T13:53:56;6.30;;;1.92;;
69256;SDS011;56376;53.356;-1.748;2022-10-31T13:56:26;4.78;;;1.90;;
69256;SDS011;56376;53.356;-1.748;2022-10-31T13:59:15;7.82;;;2.70;;
69256;SDS011;56376;53.356;-1.748;2022-10-31T14:01:59;4.90;;;2.10;;
69256;SDS011;56376;53.356;-1.748;2022-10-31T14:07:17;6.95;;;2.22;;
69256;SDS011;56376;53.356;-1.748;2022-10-31T14:12:27;5.57;;;1.98;;
69256;SDS011;56376;53.356;-1.748;2022-10-31T14:14:55;6.50;;;2.33;;
69256;SDS011;56376;53.356;-1.748;2022-10-31T14:17:25;5.93;;;2.05;;
69256;SDS011;56376;53.356;-1.748;2022-10-31T14:19:59;6.25;;;2.25;;
69256;SDS011;56376;53.356;-1.748;2022-10-31T14:22:30;3.55;;;1.73;;
69256;SDS011;56376;53.356;-1.748;2022-10-31T14:24:57;6.68;;;2.30;;
69256;SDS011;56376;53.356;-1.748;2022-10-31T14:29:51;5.38;;;2.45;;
69256;SDS011;56376;53.356;-1.748;2022-10-31T14:42:43;5.63;;;2.50;;
69256;SDS011;56376;53.356;-1.748;2022-10-31T15:27:43;3.83;;;1.98;;
69256;SDS011;56376;53.356;-1.748;2022-10-31T15:41:59;5.03;;;2.00;;
69256;SDS011;56376;53.356;-1.748;2022-10-31T15:44:28;4.15;;;2.20;;
69256;SDS011;56376;53.356;-1.748;2022-10-31T15:47:06;5.95;;;1.85;;
69256;SDS011;56376;53.356;-1.748;2022-10-31T15:49:41;4.45;;;1.95;;
69256;SDS011;56376;53.356;-1.748;2022-10-31T15:57:40;6.53;;;1.92;;
69256;SDS011;56376;53.356;-1.748;2022-10-31T16:00:21;3.92;;;2.20;;
69256;SDS011;56376;53.356;-1.748;2022-10-31T16:05:48;3.20;;;2.40;;
69256;SDS011;56376;53.356;-1.748;2022-10-31T16:10:53;4.70;;;1.50;;
69256;SDS011;56376;53.356;-1.748;2022-10-31T16:13:29;3.97;;;1.90;;
69256;SDS011;56376;53.356;-1.748;2022-10-31T16:16:03;4.50;;;1.77;;
69256;SDS011;56376;53.356;-1.748;2022-10-31T16:18:40;3.85;;;1.73;;
69256;SDS011;56376;53.356;-1.748;2022-10-31T16:21:07;3.50;;;2.05;;
69256;SDS011;56376;53.356;-1.748;2022-10-31T16:23:33;3.17;;;1.77;;
69256;SDS011;56376;53.356;-1.748;2022-10-31T16:25:59;3.47;;;1.95;;
69256;SDS011;56376;53.356;-1.748;2022-10-31T16:28:30;5.07;;;1.90;;
69256;SDS011;56376;53.356;-1.748;2022-10-31T16:30:57;3.83;;;1.80;;
69256;SDS011;56376;53.356;-1.748;2022-10-31T16:33:35;3.95;;;1.70;;
69256;SDS011;56376;53.356;-1.748;2022-10-31T16:39:03;3.85;;;1.73;;
69256;SDS011;56376;53.356;-1.748;2022-10-31T16:41:29;3.13;;;2.50;;
69256;SDS011;56376;53.356;-1.748;2022-10-31T16:43:55;3.97;;;1.85;;
69256;SDS011;56376;53.356;-1.748;2022-10-31T16:46:22;2.10;;;1.50;;
69256;SDS011;56376;53.356;-1.748;2022-10-31T16:48:49;3.55;;;1.95;;
69256;SDS011;56376;53.356;-1.748;2022-10-31T16:51:15;2.95;;;1.67;;
69256;SDS011;56376;53.356;-1.748;2022-10-31T16:53:40;2.95;;;1.67;;
69256;SDS011;56376;53.356;-1.748;2022-10-31T16:56:06;2.22;;;1.58;;
69256;SDS011;56376;53.356;-1.748;2022-10-31T16:58:40;4.45;;;1.73;;
69256;SDS011;56376;53.356;-1.748;2022-10-31T17:01:08;2.97;;;1.52;;
69256;SDS011;56376;53.356;-1.748;2022-10-31T17:32:10;9.02;;;6.13;;
69256;SDS011;56376;53.356;-1.748;2022-10-31T18:35:22;6.90;;;4.07;;
69256;SDS011;56376;53.356;-1.748;2022-10-31T18:37:49;7.88;;;5.30;;
69256;SDS011;56376;53.356;-1.748;2022-10-31T18:40:15;8.32;;;5.00;;
69256;SDS011;56376;53.356;-1.748;2022-10-31T18:42:40;6.97;;;4.68;;
69256;SDS011;56376;53.356;-1.748;2022-10-31T18:45:06;10.40;;;4.60;;
69256;SDS011;56376;53.356;-1.748;2022-10-31T18:47:32;6.57;;;3.92;;
69256;SDS011;56376;53.356;-1.748;2022-10-31T18:49:57;8.18;;;3.58;;
69256;SDS011;56376;53.356;-1.748;2022-10-31T18:52:22;6.50;;;3.33;;
69256;SDS011;56376;53.356;-1.748;2022-10-31T18:54:48;5.72;;;3.10;;
69256;SDS011;56376;53.356;-1.748;2022-10-31T18:57:14;4.13;;;3.10;;
69256;SDS011;56376;53.356;-1.748;2022-10-31T18:59:39;4.13;;;2.67;;
69256;SDS011;56376;53.356;-1.748;2022-10-31T19:02:05;4.63;;;2.80;;
69256;SDS011;56376;53.356;-1.748;2022-10-31T19:04:30;4.93;;;3.05;;
69256;SDS011;56376;53.356;-1.748;2022-10-31T19:06:56;5.80;;;4.30;;
69256;SDS011;56376;53.356;-1.748;2022-10-31T19:09:21;17.08;;;9.38;;
69256;SDS011;56376;53.356;-1.748;2022-10-31T19:11:48;23.85;;;13.05;;
69256;SDS011;56376;53.356;-1.748;2022-10-31T19:14:14;20.45;;;11.43;;
69256;SDS011;56376;53.356;-1.748;2022-10-31T19:16:40;15.02;;;8.25;;
69256;SDS011;56376;53.356;-1.748;2022-10-31T19:19:06;16.35;;;9.10;;
69256;SDS011;56376;53.356;-1.748;2022-10-31T19:21:32;11.63;;;5.68;;
69256;SDS011;56376;53.356;-1.748;2022-10-31T19:23:58;9.50;;;4.95;;
69256;SDS011;56376;53.356;-1.748;2022-10-31T19:26:25;6.72;;;4.32;;
69256;SDS011;56376;53.356;-1.748;2022-10-31T19:28:51;5.65;;;2.95;;
69256;SDS011;56376;53.356;-1.748;2022-10-31T19:31:17;3.90;;;3.08;;
69256;SDS011;56376;53.356;-1.748;2022-10-31T19:33:43;4.43;;;2.70;;
69256;SDS011;56376;53.356;-1.748;2022-10-31T19:36:10;5.88;;;2.90;;
69256;SDS011;56376;53.356;-1.748;2022-10-31T19:38:39;3.95;;;2.80;;
69256;SDS011;56376;53.356;-1.748;2022-10-31T19:41:16;9.52;;;5.30;;
69256;SDS011;56376;53.356;-1.748;2022-10-31T19:43:43;7.72;;;5.20;;
69256;SDS011;56376;53.356;-1.748;2022-10-31T19:46:09;6.22;;;3.90;;
69256;SDS011;56376;53.356;-1.748;2022-10-31T19:48:36;5.82;;;3.83;;
69256;SDS011;56376;53.356;-1.748;2022-10-31T19:51:04;6.82;;;4.25;;
69256;SDS011;56376;53.356;-1.748;2022-10-31T19:53:33;4.25;;;3.45;;
69256;SDS011;56376;53.356;-1.748;2022-10-31T19:56:00;7.40;;;3.67;;
69256;SDS011;56376;53.356;-1.748;2022-10-31T19:58:26;4.90;;;2.72;;
69256;SDS011;56376;53.356;-1.748;2022-10-31T20:00:52;3.53;;;2.85;;
69256;SDS011;56376;53.356;-1.748;2022-10-31T20:03:17;6.38;;;2.90;;
69256;SDS011;56376;53.356;-1.748;2022-10-31T20:05:43;4.00;;;3.20;;
69256;SDS011;56376;53.356;-1.748;2022-10-31T20:08:13;4.82;;;3.60;;
69256;SDS011;56376;53.356;-1.748;2022-10-31T20:10:40;3.60;;;2.85;;
69256;SDS011;56376;53.356;-1.748;2022-10-31T20:13:06;3.33;;;2.58;;
69256;SDS011;56376;53.356;-1.748;2022-10-31T20:15:32;2.85;;;2.13;;
69256;SDS011;56376;53.356;-1.748;2022-10-31T20:17:58;3.97;;;2.33;;
69256;SDS011;56376;53.356;-1.748;2022-10-31T20:20:23;2.78;;;1.73;;
69256;SDS011;56376;53.356;-1.748;2022-10-31T20:22:49;1.98;;;1.48;;
69256;SDS011;56376;53.356;-1.748;2022-10-31T20:25:14;2.53;;;1.58;;
69256;SDS011;56376;53.356;-1.748;2022-10-31T20:27:40;1.90;;;1.50;;
69256;SDS011;56376;53.356;-1.748;2022-10-31T20:30:06;2.33;;;1.25;;
69256;SDS011;56376;53.356;-1.748;2022-10-31T20:32:32;4.40;;;1.20;;
69256;SDS011;56376;53.356;-1.748;2022-10-31T20:34:57;2.30;;;1.60;;
69256;SDS011;56376;53.356;-1.748;2022-10-31T20:37:22;1.50;;;1.40;;
69256;SDS011;56376;53.356;-1.748;2022-10-31T20:39:49;3.25;;;1.70;;
69256;SDS011;56376;53.356;-1.748;2022-10-31T20:42:15;4.93;;;2.10;;
69256;SDS011;56376;53.356;-1.748;2022-10-31T20:44:40;3.05;;;1.80;;
69256;SDS011;56376;53.356;-1.748;2022-10-31T20:47:05;2.33;;;1.80;;
69256;SDS011;56376;53.356;-1.748;2022-10-31T20:49:31;2.03;;;1.67;;
69256;SDS011;56376;53.356;-1.748;2022-10-31T20:51:56;2.25;;;1.42;;
69256;SDS011;56376;53.356;-1.748;2022-10-31T20:54:21;2.40;;;1.55;;
69256;SDS011;56376;53.356;-1.748;2022-10-31T20:56:47;2.88;;;1.65;;
69256;SDS011;56376;53.356;-1.748;2022-10-31T20:59:13;3.53;;;2.03;;
69256;SDS011;56376;53.356;-1.748;2022-10-31T21:01:39;2.75;;;2.30;;
69256;SDS011;56376;53.356;-1.748;2022-10-31T21:04:04;2.10;;;1.90;;
69256;SDS011;56376;53.356;-1.748;2022-10-31T21:06:32;2.40;;;2.20;;
69256;SDS011;56376;53.356;-1.748;2022-10-31T21:08:59;3.17;;;2.22;;
69256;SDS011;56376;53.356;-1.748;2022-10-31T21:11:25;2.65;;;2.22;;
69256;SDS011;56376;53.356;-1.748;2022-10-31T21:13:51;2.47;;;2.00;;
69256;SDS011;56376;53.356;-1.748;2022-10-31T21:16:19;2.10;;;1.80;;
69256;SDS011;56376;53.356;-1.748;2022-10-31T21:18:49;3.03;;;1.90;;
69256;SDS011;56376;53.356;-1.748;2022-10-31T21:21:19;1.80;;;1.70;;
69256;SDS011;56376;53.356;-1.748;2022-10-31T21:23:58;2.42;;;1.55;;
69256;SDS011;56376;53.356;-1.748;2022-10-31T21:26:27;1.70;;;1.60;;
69256;SDS011;56376;53.356;-1.748;2022-10-31T21:28:55;2.75;;;2.28;;
69256;SDS011;56376;53.356;-1.748;2022-10-31T21:31:22;2.13;;;1.70;;
69256;SDS011;56376;53.356;-1.748;2022-10-31T21:33:48;1.85;;;1.70;;
69256;SDS011;56376;53.356;-1.748;2022-10-31T21:36:14;2.15;;;1.40;;
69256;SDS011;56376;53.356;-1.748;2022-10-31T21:38:40;1.23;;;1.10;;
69256;SDS011;56376;53.356;-1.748;2022-10-31T21:41:09;0.85;;;0.85;;
69256;SDS011;56376;53.356;-1.748;2022-10-31T21:43:37;1.10;;;1.00;;
69256;SDS011;56376;53.356;-1.748;2022-10-31T21:46:05;0.98;;;0.88;;
69256;SDS011;56376;53.356;-1.748;2022-10-31T21:48:36;5.95;;;2.47;;
69256;SDS011;56376;53.356;-1.748;2022-10-31T21:51:05;3.72;;;2.83;;
69256;SDS011;56376;53.356;-1.748;2022-10-31T21:53:33;2.88;;;2.63;;
69256;SDS011;56376;53.356;-1.748;2022-10-31T21:58:42;2.05;;;1.80;;
69256;SDS011;56376;53.356;-1.748;2022-10-31T22:01:08;1.70;;;1.60;;
69256;SDS011;56376;53.356;-1.748;2022-10-31T22:03:34;2.42;;;2.05;;
69256;SDS011;56376;53.356;-1.748;2022-10-31T22:06:01;1.80;;;1.40;;
69256;SDS011;56376;53.356;-1.748;2022-10-31T22:08:27;1.92;;;1.60;;
69256;SDS011;56376;53.356;-1.748;2022-10-31T22:10:53;2.63;;;2.40;;
69256;SDS011;56376;53.356;-1.748;2022-10-31T22:13:18;4.75;;;4.20;;
69256;SDS011;56376;53.356;-1.748;2022-10-31T22:15:43;5.68;;;5.10;;
69256;SDS011;56376;53.356;-1.748;2022-10-31T22:18:09;6.90;;;6.20;;
69256;SDS011;56376;53.356;-1.748;2022-10-31T22:20:34;5.10;;;4.57;;
69256;SDS011;56376;53.356;-1.748;2022-10-31T22:23:00;4.78;;;3.97;;
69256;SDS011;56376;53.356;-1.748;2022-10-31T22:25:25;4.88;;;4.03;;
69256;SDS011;56376;53.356;-1.748;2022-10-31T22:27:50;4.30;;;3.90;;
69256;SDS011;56376;53.356;-1.748;2022-10-31T22:30:16;4.70;;;4.20;;
69256;SDS011;56376;53.356;-1.748;2022-10-31T22:32:42;7.97;;;6.38;;
69256;SDS011;56376;53.356;-1.748;2022-10-31T22:35:07;9.10;;;7.45;;
69256;SDS011;56376;53.356;-1.748;2022-10-31T22:37:33;11.00;;;9.07;;
69256;SDS011;56376;53.356;-1.748;2022-10-31T22:39:58;9.93;;;8.93;;
69256;SDS011;56376;53.356;-1.748;2022-10-31T22:42:23;18.73;;;12.80;;
69256;SDS011;56376;53.356;-1.748;2022-10-31T22:44:49;16.50;;;11.30;;
69256;SDS011;56376;53.356;-1.748;2022-10-31T22:47:14;11.32;;;9.50;;
69256;SDS011;56376;53.356;-1.748;2022-10-31T22:49:39;9.55;;;8.40;;
69256;SDS011;56376;53.356;-1.748;2022-10-31T22:52:05;11.75;;;8.98;;
69256;SDS011;56376;53.356;-1.748;2022-10-31T22:54:30;9.70;;;8.70;;
69256;SDS011;56376;53.356;-1.748;2022-10-31T22:56:56;10.85;;;9.70;;
69256;SDS011;56376;53.356;-1.748;2022-10-31T22:59:21;11.43;;;10.15;;
69256;SDS011;56376;53.356;-1.748;2022-10-31T23:01:46;9.43;;;8.52;;
69256;SDS011;56376;53.356;-1.748;2022-10-31T23:04:12;9.05;;;8.15;;
69256;SDS011;56376;53.356;-1.748;2022-10-31T23:06:39;10.10;;;9.10;;
69256;SDS011;56376;53.356;-1.748;2022-10-31T23:09:05;9.70;;;8.55;;
69256;SDS011;56376;53.356;-1.748;2022-10-31T23:11:32;10.20;;;9.15;;
69256;SDS011;56376;53.356;-1.748;2022-10-31T23:13:59;9.02;;;8.15;;
69256;SDS011;56376;53.356;-1.748;2022-10-31T23:21:47;8.63;;;7.82;;
69256;SDS011;56376;53.356;-1.748;2022-10-31T23:27:03;10.82;;;9.13;;
69256;SDS011;56376;53.356;-1.748;2022-10-31T23:32:14;9.32;;;8.38;;
69256;SDS011;56376;53.356;-1.748;2022-10-31T23:34:46;11.65;;;9.27;;
69256;SDS011;56376;53.356;-1.748;2022-10-31T23:37:13;9.30;;;8.40;;
69256;SDS011;56376;53.356;-1.748;2022-10-31T23:39:40;8.40;;;7.60;;
69256;SDS011;56376;53.356;-1.748;2022-10-31T23:42:05;9.52;;;8.57;;
69256;SDS011;56376;53.356;-1.748;2022-10-31T23:44:31;10.05;;;8.85;;